createdAt,value
2023-05-05T00:00:39.316Z,81.35
2023-05-05T00:01:18.276Z,81.16
2023-05-05T00:02:18.245Z,81.35
2023-05-05T00:03:18.219Z,81.16
2023-05-05T00:04:18.246Z,81.26
2023-05-05T00:05:18.062Z,81.16
2023-05-05T00:06:38.996Z,81.16
2023-05-05T00:07:17.956Z,81.16
2023-05-05T00:08:17.903Z,81.26
2023-05-05T00:09:17.869Z,81.16
2023-05-05T00:10:17.809Z,81.16
2023-05-05T00:11:17.746Z,81.26
2023-05-05T00:12:38.705Z,81.26
2023-05-05T00:13:18.304Z,81.45
2023-05-05T00:14:17.592Z,81.07
2023-05-05T00:15:17.538Z,81.26
2023-05-05T00:16:17.485Z,81.07
2023-05-05T00:17:17.512Z,81.16
2023-05-05T00:18:38.366Z,81.07
2023-05-05T00:19:17.333Z,81.16
2023-05-05T00:20:17.283Z,81.16
2023-05-05T00:21:17.221Z,81.35
2023-05-05T00:22:17.167Z,81.35
2023-05-05T00:23:17.143Z,81.16
2023-05-05T00:24:38.050Z,81.35
2023-05-05T00:25:17.009Z,81.35
2023-05-05T00:26:16.956Z,81.16
2023-05-05T00:27:16.905Z,81.26
2023-05-05T00:28:16.862Z,81.16
2023-05-05T00:29:16.799Z,81.35
2023-05-05T00:30:37.736Z,81.26
2023-05-05T00:31:16.729Z,81.26
2023-05-05T00:32:16.657Z,81.26
2023-05-05T00:33:16.594Z,81.54
2023-05-05T00:34:16.541Z,81.54
2023-05-05T00:35:16.485Z,81.74
2023-05-05T00:36:37.440Z,81.84
2023-05-05T00:37:16.379Z,81.74
2023-05-05T00:38:16.340Z,81.74
2023-05-05T00:39:16.276Z,81.64
2023-05-05T00:40:16.220Z,81.54
2023-05-05T00:41:16.176Z,81.16
2023-05-05T00:42:37.116Z,81.45
2023-05-05T00:43:16.064Z,81.35
2023-05-05T00:44:16.011Z,81.84
2023-05-05T00:45:15.974Z,81.70
2023-05-05T00:46:15.918Z,81.84
2023-05-05T00:47:15.872Z,81.45
2023-05-05T00:48:36.802Z,81.45
2023-05-05T00:49:15.767Z,81.54
2023-05-05T00:50:15.712Z,81.54
2023-05-05T00:51:15.652Z,81.64
2023-05-05T00:52:15.600Z,81.16
2023-05-05T00:53:15.541Z,81.74
2023-05-05T00:54:36.477Z,81.26
2023-05-05T00:55:15.435Z,81.26
2023-05-05T00:56:15.386Z,81.45
2023-05-05T00:57:15.339Z,81.45
2023-05-05T00:58:15.297Z,81.35
2023-05-05T00:59:15.235Z,81.60
2023-05-05T01:00:36.158Z,81.45
2023-05-05T01:01:15.179Z,80.97
2023-05-05T01:02:15.070Z,81.16
2023-05-05T01:03:15.076Z,81.35
2023-05-05T01:04:14.960Z,81.31
2023-05-05T01:05:14.913Z,81.16
2023-05-05T01:06:35.849Z,81.41
2023-05-05T01:07:14.815Z,81.41
2023-05-05T01:08:14.753Z,81.41
2023-05-05T01:09:14.696Z,81.41
2023-05-05T01:10:20.284Z,81.51
2023-05-05T01:11:14.593Z,81.41
2023-05-05T01:12:35.554Z,81.60
2023-05-05T01:13:14.556Z,81.70
2023-05-05T01:14:14.450Z,81.70
2023-05-05T01:15:14.381Z,82.27
2023-05-05T01:16:14.396Z,82.37
2023-05-05T01:17:14.280Z,81.98
2023-05-05T01:18:35.213Z,81.89
2023-05-05T01:19:14.165Z,82.37
2023-05-05T01:20:14.112Z,82.18
2023-05-05T01:21:14.067Z,82.18
2023-05-05T01:22:14.024Z,82.08
2023-05-05T01:23:13.954Z,82.08
2023-05-05T01:24:34.902Z,82.08
2023-05-05T01:25:13.866Z,81.89
2023-05-05T01:26:13.801Z,81.89
2023-05-05T01:27:13.748Z,81.98
2023-05-05T01:28:13.716Z,82.12
2023-05-05T01:29:13.640Z,82.08
2023-05-05T01:30:34.603Z,82.37
2023-05-05T01:31:13.566Z,82.18
2023-05-05T01:32:13.484Z,82.18
2023-05-05T01:33:13.435Z,82.08
2023-05-05T01:34:13.376Z,82.18
2023-05-05T01:35:13.326Z,82.18
2023-05-05T01:36:34.265Z,82.27
2023-05-05T01:37:13.223Z,82.12
2023-05-05T01:38:13.169Z,82.18
2023-05-05T01:39:13.110Z,82.08
2023-05-05T01:40:13.098Z,82.46
2023-05-05T01:41:13.012Z,82.37
2023-05-05T01:42:33.946Z,82.18
2023-05-05T01:43:12.903Z,82.21
2023-05-05T01:44:12.853Z,82.37
2023-05-05T01:45:12.800Z,82.46
2023-05-05T01:46:12.895Z,82.18
2023-05-05T01:47:12.688Z,82.65
2023-05-05T01:48:33.626Z,82.18
2023-05-05T01:49:12.584Z,82.27
2023-05-05T01:50:12.528Z,82.27
2023-05-05T01:51:12.487Z,82.08
2023-05-05T01:52:12.416Z,82.08
2023-05-05T01:53:12.375Z,82.27
2023-05-05T01:54:33.307Z,82.37
2023-05-05T01:55:12.262Z,82.65
2023-05-05T01:56:12.229Z,82.37
2023-05-05T01:57:12.156Z,82.65
2023-05-05T01:58:12.103Z,82.65
2023-05-05T01:59:12.050Z,82.56
2023-05-05T02:00:32.994Z,82.94
2023-05-05T02:01:11.992Z,82.85
2023-05-05T02:02:12.034Z,82.75
2023-05-05T02:03:11.922Z,82.65
2023-05-05T02:04:11.789Z,82.56
2023-05-05T02:05:11.738Z,82.85
2023-05-05T02:06:32.681Z,82.65
2023-05-05T02:07:11.633Z,82.65
2023-05-05T02:08:11.575Z,82.85
2023-05-05T02:09:11.527Z,83.04
2023-05-05T02:10:11.470Z,83.04
2023-05-05T02:11:11.426Z,82.85
2023-05-05T02:12:32.402Z,82.75
2023-05-05T02:13:11.444Z,82.56
2023-05-05T02:14:11.262Z,82.75
2023-05-05T02:15:11.249Z,82.37
2023-05-05T02:16:11.216Z,82.37
2023-05-05T02:17:11.102Z,82.85
2023-05-05T02:18:32.045Z,83.04
2023-05-05T02:19:10.995Z,83.04
2023-05-05T02:20:10.948Z,82.85
2023-05-05T02:21:10.907Z,82.85
2023-05-05T02:22:10.844Z,82.85
2023-05-05T02:23:10.788Z,82.65
2023-05-05T02:24:31.726Z,82.85
2023-05-05T02:25:10.684Z,83.23
2023-05-05T02:26:10.628Z,82.85
2023-05-05T02:27:10.580Z,82.94
2023-05-05T02:28:10.579Z,82.94
2023-05-05T02:29:10.476Z,82.75
2023-05-05T02:30:31.411Z,83.23
2023-05-05T02:31:10.386Z,83.04
2023-05-05T02:32:10.310Z,83.14
2023-05-05T02:33:10.268Z,83.33
2023-05-05T02:34:10.207Z,83.33
2023-05-05T02:35:10.159Z,83.14
2023-05-05T02:36:31.091Z,82.75
2023-05-05T02:37:10.049Z,83.14
2023-05-05T02:38:09.991Z,83.14
2023-05-05T02:39:09.943Z,83.33
2023-05-05T02:40:10.055Z,83.52
2023-05-05T02:41:09.838Z,83.33
2023-05-05T02:42:30.781Z,83.42
2023-05-05T02:43:09.764Z,83.52
2023-05-05T02:44:09.689Z,83.33
2023-05-05T02:45:09.653Z,83.33
2023-05-05T02:46:09.589Z,83.33
2023-05-05T02:47:09.529Z,83.52
2023-05-05T02:48:30.459Z,83.71
2023-05-05T02:49:09.411Z,83.61
2023-05-05T02:50:09.655Z,83.61
2023-05-05T02:51:09.313Z,83.33
2023-05-05T02:52:09.254Z,83.33
2023-05-05T02:53:09.203Z,82.94
2023-05-05T02:54:30.141Z,83.33
2023-05-05T02:55:09.092Z,83.81
2023-05-05T02:56:09.046Z,83.33
2023-05-05T02:57:08.992Z,83.52
2023-05-05T02:58:08.931Z,83.61
2023-05-05T02:59:08.880Z,83.91
2023-05-05T03:00:29.829Z,83.91
2023-05-05T03:01:08.819Z,83.61
2023-05-05T03:02:08.725Z,84.00
2023-05-05T03:03:08.750Z,83.91
2023-05-05T03:04:08.623Z,84.09
2023-05-05T03:05:08.563Z,83.71
2023-05-05T03:06:29.503Z,83.71
2023-05-05T03:07:08.462Z,83.61
2023-05-05T03:08:08.410Z,83.81
2023-05-05T03:09:08.347Z,83.81
2023-05-05T03:10:08.529Z,83.91
2023-05-05T03:11:12.868Z,83.81
2023-05-05T03:12:29.197Z,83.91
2023-05-05T03:13:08.229Z,83.81
2023-05-05T03:14:08.086Z,83.52
2023-05-05T03:15:08.033Z,83.71
2023-05-05T03:16:08.052Z,83.81
2023-05-05T03:17:07.929Z,83.81
2023-05-05T03:18:31.856Z,83.81
2023-05-05T03:19:07.828Z,83.91
2023-05-05T03:20:07.960Z,83.81
2023-05-05T03:21:07.720Z,83.52
2023-05-05T03:22:07.661Z,83.91
2023-05-05T03:23:07.619Z,83.81
2023-05-05T03:24:28.573Z,83.81
2023-05-05T03:25:07.525Z,83.81
2023-05-05T03:26:07.454Z,83.81
2023-05-05T03:27:07.395Z,83.81
2023-05-05T03:28:07.344Z,83.91
2023-05-05T03:29:07.293Z,83.81
2023-05-05T03:30:28.234Z,83.91
2023-05-05T03:31:07.185Z,83.81
2023-05-05T03:32:07.262Z,83.76
2023-05-05T03:33:07.097Z,83.81
2023-05-05T03:34:07.028Z,83.95
2023-05-05T03:35:06.968Z,83.76
2023-05-05T03:36:29.411Z,83.95
2023-05-05T03:37:06.866Z,83.91
2023-05-05T03:38:06.821Z,83.95
2023-05-05T03:39:06.773Z,83.95
2023-05-05T03:40:06.978Z,83.81
2023-05-05T03:41:06.659Z,83.91
2023-05-05T03:42:27.602Z,83.91
2023-05-05T03:43:06.549Z,84.05
2023-05-05T03:44:06.592Z,84.09
2023-05-05T03:45:06.441Z,84.05
2023-05-05T03:46:06.422Z,84.34
2023-05-05T03:47:06.338Z,84.09
2023-05-05T03:48:27.292Z,84.09
2023-05-05T03:49:06.227Z,84.09
2023-05-05T03:50:06.303Z,83.76
2023-05-05T03:51:06.133Z,83.86
2023-05-05T03:52:06.073Z,83.91
2023-05-05T03:53:06.022Z,83.95
2023-05-05T03:54:26.956Z,83.76
2023-05-05T03:55:05.916Z,83.86
2023-05-05T03:56:05.865Z,83.86
2023-05-05T03:57:05.821Z,83.67
2023-05-05T03:58:05.754Z,83.86
2023-05-05T03:59:05.705Z,83.76
2023-05-05T04:00:26.643Z,84.15
2023-05-05T04:01:05.592Z,84.25
2023-05-05T04:02:05.572Z,84.25
2023-05-05T04:03:05.711Z,84.15
2023-05-05T04:04:05.482Z,84.15
2023-05-05T04:05:05.385Z,84.15
2023-05-05T04:06:26.333Z,84.44
2023-05-05T04:07:05.277Z,84.25
2023-05-05T04:08:05.232Z,84.34
2023-05-05T04:09:05.172Z,83.76
2023-05-05T04:10:05.191Z,84.05
2023-05-05T04:11:05.068Z,84.15
2023-05-05T04:12:26.012Z,84.15
2023-05-05T04:13:04.978Z,84.15
2023-05-05T04:14:04.903Z,84.25
2023-05-05T04:15:04.856Z,84.25
2023-05-05T04:16:04.849Z,84.25
2023-05-05T04:17:04.748Z,84.25
2023-05-05T04:18:25.684Z,84.25
2023-05-05T04:19:04.649Z,84.25
2023-05-05T04:20:04.621Z,84.25
2023-05-05T04:21:04.543Z,83.95
2023-05-05T04:22:04.489Z,84.05
2023-05-05T04:23:04.435Z,84.15
2023-05-05T04:24:25.373Z,84.15
2023-05-05T04:25:04.323Z,84.05
2023-05-05T04:26:04.293Z,83.95
2023-05-05T04:27:04.216Z,84.34
2023-05-05T04:28:04.169Z,84.25
2023-05-05T04:29:04.112Z,84.44
2023-05-05T04:30:25.048Z,84.44
2023-05-05T04:31:04.099Z,84.34
2023-05-05T04:32:03.955Z,84.63
2023-05-05T04:33:03.926Z,84.25
2023-05-05T04:34:03.842Z,84.44
2023-05-05T04:35:03.787Z,84.25
2023-05-05T04:36:24.732Z,84.34
2023-05-05T04:37:03.684Z,84.34
2023-05-05T04:38:03.644Z,84.25
2023-05-05T04:39:03.653Z,84.34
2023-05-05T04:40:03.537Z,84.34
2023-05-05T04:41:03.516Z,84.34
2023-05-05T04:42:24.408Z,84.63
2023-05-05T04:43:03.364Z,83.95
2023-05-05T04:44:03.315Z,84.05
2023-05-05T04:45:03.258Z,84.15
2023-05-05T04:46:03.215Z,84.44
2023-05-05T04:47:03.153Z,84.15
2023-05-05T04:48:24.090Z,84.25
2023-05-05T04:49:03.053Z,84.72
2023-05-05T04:50:03.008Z,84.72
2023-05-05T04:51:02.943Z,84.72
2023-05-05T04:52:02.896Z,84.44
2023-05-05T04:53:02.829Z,84.25
2023-05-05T04:54:23.789Z,84.72
2023-05-05T04:55:02.736Z,84.72
2023-05-05T04:56:02.680Z,84.91
2023-05-05T04:57:02.622Z,84.91
2023-05-05T04:58:02.569Z,84.91
2023-05-05T04:59:02.509Z,84.91
2023-05-05T05:00:23.455Z,84.53
2023-05-05T05:01:02.404Z,84.82
2023-05-05T05:02:02.380Z,84.82
2023-05-05T05:03:02.401Z,84.72
2023-05-05T05:04:02.336Z,85.01
2023-05-05T05:05:02.190Z,84.82
2023-05-05T05:06:23.133Z,84.63
2023-05-05T05:07:02.092Z,84.82
2023-05-05T05:08:02.076Z,84.91
2023-05-05T05:09:01.990Z,84.53
2023-05-05T05:10:01.931Z,84.63
2023-05-05T05:11:01.883Z,84.44
2023-05-05T05:12:22.822Z,84.53
2023-05-05T05:13:01.802Z,84.82
2023-05-05T05:14:01.721Z,84.72
2023-05-05T05:15:01.675Z,84.63
2023-05-05T05:16:01.638Z,84.72
2023-05-05T05:17:01.556Z,84.72
2023-05-05T05:18:22.491Z,84.72
2023-05-05T05:19:01.894Z,84.72
2023-05-05T05:20:01.394Z,84.91
2023-05-05T05:21:01.344Z,84.82
2023-05-05T05:22:01.290Z,84.82
2023-05-05T05:23:01.239Z,84.82
2023-05-05T05:24:22.190Z,85.01
2023-05-05T05:25:01.153Z,85.01
2023-05-05T05:26:01.076Z,85.11
2023-05-05T05:27:01.039Z,85.21
2023-05-05T05:28:08.763Z,85.21
2023-05-05T05:29:00.917Z,85.49
2023-05-05T05:30:21.853Z,85.39
2023-05-05T05:31:00.806Z,85.39
2023-05-05T05:32:00.784Z,85.01
2023-05-05T05:33:00.728Z,85.49
2023-05-05T05:34:00.653Z,85.39
2023-05-05T05:35:00.597Z,85.11
2023-05-05T05:36:21.538Z,85.30
2023-05-05T05:37:00.489Z,85.39
2023-05-05T05:38:00.437Z,85.30
2023-05-05T05:39:00.381Z,85.21
2023-05-05T05:40:00.338Z,85.30
2023-05-05T05:41:00.277Z,85.39
2023-05-05T05:42:21.224Z,85.21
2023-05-05T05:43:00.169Z,85.88
2023-05-05T05:44:00.158Z,85.58
2023-05-05T05:45:00.061Z,85.58
2023-05-05T05:46:00.035Z,85.58
2023-05-05T05:46:59.960Z,85.58
2023-05-05T05:48:20.908Z,85.01
2023-05-05T05:48:59.848Z,85.78
2023-05-05T05:49:59.803Z,85.68
2023-05-05T05:50:59.742Z,85.78
2023-05-05T05:51:59.682Z,85.78
2023-05-05T05:52:59.638Z,85.68
2023-05-05T05:54:20.570Z,85.49
2023-05-05T05:54:59.530Z,85.49
2023-05-05T05:55:59.484Z,85.39
2023-05-05T05:56:59.418Z,85.39
2023-05-05T05:57:59.369Z,85.49
2023-05-05T05:58:59.320Z,85.39
2023-05-05T06:00:20.264Z,85.58
2023-05-05T06:00:59.208Z,85.49
2023-05-05T06:01:59.171Z,85.78
2023-05-05T06:02:59.227Z,85.88
2023-05-05T06:03:59.143Z,85.68
2023-05-05T06:04:58.989Z,85.68
2023-05-05T06:06:19.930Z,85.68
2023-05-05T06:06:58.882Z,86.25
2023-05-05T06:07:58.833Z,85.88
2023-05-05T06:08:58.777Z,86.07
2023-05-05T06:09:59.292Z,86.25
2023-05-05T06:10:58.676Z,85.78
2023-05-05T06:12:19.646Z,86.45
2023-05-05T06:12:58.595Z,86.45
2023-05-05T06:13:58.516Z,85.88
2023-05-05T06:14:58.464Z,86.07
2023-05-05T06:15:58.461Z,86.07
2023-05-05T06:16:58.354Z,86.07
2023-05-05T06:18:19.333Z,85.58
2023-05-05T06:18:58.253Z,86.16
2023-05-05T06:19:58.188Z,86.07
2023-05-05T06:20:58.148Z,86.35
2023-05-05T06:21:58.089Z,86.64
2023-05-05T06:22:58.032Z,86.16
2023-05-05T06:24:18.967Z,86.74
2023-05-05T06:24:57.927Z,86.64
2023-05-05T06:25:57.876Z,86.93
2023-05-05T06:26:57.816Z,86.93
2023-05-05T06:27:57.771Z,86.74
2023-05-05T06:28:57.711Z,87.12
2023-05-05T06:30:18.657Z,86.83
2023-05-05T06:30:57.662Z,86.83
2023-05-05T06:31:57.550Z,86.93
2023-05-05T06:32:57.532Z,86.83
2023-05-05T06:33:57.445Z,86.83
2023-05-05T06:34:57.405Z,86.93
2023-05-05T06:36:18.361Z,87.60
2023-05-05T06:36:57.288Z,86.64
2023-05-05T06:37:57.247Z,86.93
2023-05-05T06:38:57.179Z,87.50
2023-05-05T06:39:57.150Z,87.12
2023-05-05T06:40:57.074Z,87.50
2023-05-05T06:42:18.023Z,86.93
2023-05-05T06:42:56.967Z,87.21
2023-05-05T06:43:56.918Z,87.31
2023-05-05T06:44:56.868Z,87.50
2023-05-05T06:45:56.808Z,87.70
2023-05-05T06:46:56.786Z,87.79
2023-05-05T06:48:17.693Z,87.60
2023-05-05T06:48:56.650Z,87.70
2023-05-05T06:49:56.601Z,88.17
2023-05-05T06:50:56.543Z,87.88
2023-05-05T06:51:56.492Z,88.17
2023-05-05T06:52:56.430Z,88.27
2023-05-05T06:54:17.373Z,88.94
2023-05-05T06:54:56.351Z,88.08
2023-05-05T06:55:56.278Z,88.75
2023-05-05T06:56:58.194Z,88.37
2023-05-05T06:57:56.174Z,88.65
2023-05-05T06:58:56.118Z,88.46
2023-05-05T07:00:17.139Z,88.46
2023-05-05T07:00:56.058Z,89.04
2023-05-05T07:01:56.563Z,88.37
2023-05-05T07:02:55.942Z,88.56
2023-05-05T07:03:55.907Z,88.56
2023-05-05T07:04:55.790Z,88.65
2023-05-05T07:06:16.734Z,88.46
2023-05-05T07:06:55.701Z,88.56
2023-05-05T07:07:55.637Z,88.56
2023-05-05T07:08:55.591Z,88.94
2023-05-05T07:09:55.546Z,88.94
2023-05-05T07:10:55.482Z,88.46
2023-05-05T07:12:16.423Z,88.27
2023-05-05T07:12:55.425Z,88.75
2023-05-05T07:13:55.330Z,89.23
2023-05-05T07:14:55.266Z,88.84
2023-05-05T07:15:55.349Z,89.04
2023-05-05T07:16:55.186Z,88.75
2023-05-05T07:18:16.100Z,88.75
2023-05-05T07:18:55.052Z,88.84
2023-05-05T07:19:55.023Z,89.04
2023-05-05T07:20:54.947Z,89.51
2023-05-05T07:21:55.102Z,89.51
2023-05-05T07:22:54.852Z,89.42
2023-05-05T07:24:15.775Z,89.71
2023-05-05T07:24:54.734Z,89.61
2023-05-05T07:25:54.682Z,89.85
2023-05-05T07:26:54.632Z,89.80
2023-05-05T07:27:54.583Z,90.14
2023-05-05T07:28:54.521Z,89.61
2023-05-05T07:30:17.576Z,89.75
2023-05-05T07:30:54.422Z,89.42
2023-05-05T07:31:54.562Z,90.19
2023-05-05T07:32:54.357Z,90.09
2023-05-05T07:33:54.268Z,90.90
2023-05-05T07:34:54.207Z,90.71
2023-05-05T07:36:15.132Z,90.33
2023-05-05T07:36:54.094Z,90.67
2023-05-05T07:37:54.039Z,90.28
2023-05-05T07:38:53.992Z,90.19
2023-05-05T07:39:53.938Z,90.42
2023-05-05T07:40:53.891Z,90.33
2023-05-05T07:42:14.817Z,90.19
2023-05-05T07:42:53.794Z,89.85
2023-05-05T07:43:53.719Z,89.85
2023-05-05T07:44:53.661Z,89.94
2023-05-05T07:45:53.621Z,89.85
2023-05-05T07:46:53.561Z,90.71
2023-05-05T07:48:14.588Z,90.81
2023-05-05T07:48:53.453Z,90.52
2023-05-05T07:49:53.401Z,90.71
2023-05-05T07:50:53.350Z,90.61
2023-05-05T07:51:53.305Z,90.33
2023-05-05T07:53:02.137Z,90.52
2023-05-05T07:54:14.215Z,90.23
2023-05-05T07:54:53.137Z,90.71
2023-05-05T07:55:53.082Z,90.71
2023-05-05T07:56:53.028Z,91.09
2023-05-05T07:57:52.973Z,91.57
2023-05-05T07:58:52.925Z,90.81
2023-05-05T08:00:13.882Z,90.33
2023-05-05T08:00:52.816Z,90.42
2023-05-05T08:01:54.845Z,90.81
2023-05-05T08:02:52.797Z,90.42
2023-05-05T08:03:52.799Z,90.52
2023-05-05T08:04:52.620Z,90.81
2023-05-05T08:06:13.541Z,90.52
2023-05-05T08:06:52.499Z,90.33
2023-05-05T08:07:52.444Z,90.90
2023-05-05T08:08:52.444Z,90.33
2023-05-05T08:09:52.344Z,90.81
2023-05-05T08:10:52.285Z,90.71
2023-05-05T08:12:13.224Z,91.19
2023-05-05T08:12:52.219Z,91.48
2023-05-05T08:13:52.120Z,91.09
2023-05-05T08:14:52.074Z,91.09
2023-05-05T08:15:52.017Z,91.09
2023-05-05T08:16:51.971Z,91.38
2023-05-05T08:18:12.996Z,91.28
2023-05-05T08:18:51.868Z,91.19
2023-05-05T08:19:51.998Z,91.28
2023-05-05T08:20:51.752Z,91.67
2023-05-05T08:21:51.714Z,91.67
2023-05-05T08:22:51.651Z,91.67
2023-05-05T08:24:12.586Z,91.77
2023-05-05T08:24:51.560Z,91.77
2023-05-05T08:25:51.492Z,91.48
2023-05-05T08:26:51.439Z,92.05
2023-05-05T08:27:51.381Z,91.77
2023-05-05T08:28:51.332Z,91.48
2023-05-05T08:30:12.283Z,92.15
2023-05-05T08:30:51.224Z,91.86
2023-05-05T08:31:51.196Z,91.96
2023-05-05T08:32:51.142Z,92.24
2023-05-05T08:33:51.065Z,91.96
2023-05-05T08:34:51.017Z,91.86
2023-05-05T08:36:12.033Z,92.34
2023-05-05T08:36:50.908Z,91.86
2023-05-05T08:37:50.852Z,92.15
2023-05-05T08:38:50.799Z,91.86
2023-05-05T08:39:50.746Z,92.24
2023-05-05T08:40:50.696Z,91.86
2023-05-05T08:42:12.378Z,91.86
2023-05-05T08:42:50.591Z,92.05
2023-05-05T08:43:50.578Z,92.63
2023-05-05T08:44:50.481Z,92.54
2023-05-05T08:45:50.428Z,92.34
2023-05-05T08:46:50.394Z,92.54
2023-05-05T08:48:11.350Z,92.54
2023-05-05T08:48:50.268Z,92.72
2023-05-05T08:49:50.213Z,92.82
2023-05-05T08:50:50.159Z,92.82
2023-05-05T08:51:50.196Z,93.01
2023-05-05T08:52:51.392Z,92.34
2023-05-05T08:54:10.987Z,92.72
2023-05-05T08:54:49.944Z,92.54
2023-05-05T08:55:49.904Z,92.72
2023-05-05T08:56:49.840Z,93.01
2023-05-05T08:57:49.789Z,93.40
2023-05-05T08:58:49.738Z,93.11
2023-05-05T09:00:10.671Z,92.91
2023-05-05T09:00:49.681Z,92.82
2023-05-05T09:01:49.573Z,92.82
2023-05-05T09:02:49.576Z,92.82
2023-05-05T09:03:49.801Z,93.11
2023-05-05T09:04:49.418Z,93.59
2023-05-05T09:06:10.358Z,93.11
2023-05-05T09:06:49.315Z,93.01
2023-05-05T09:07:49.336Z,92.72
2023-05-05T09:08:49.206Z,92.72
2023-05-05T09:09:49.150Z,93.40
2023-05-05T09:10:49.125Z,93.88
2023-05-05T09:12:10.041Z,94.74
2023-05-05T09:12:49.018Z,94.54
2023-05-05T09:13:48.942Z,93.78
2023-05-05T09:14:48.885Z,94.07
2023-05-05T09:15:48.833Z,93.68
2023-05-05T09:16:48.840Z,93.40
2023-05-05T09:18:09.750Z,93.30
2023-05-05T09:18:48.672Z,94.07
2023-05-05T09:19:48.621Z,94.64
2023-05-05T09:20:48.617Z,94.93
2023-05-05T09:21:48.518Z,94.64
2023-05-05T09:22:48.457Z,95.31
2023-05-05T09:24:09.714Z,95.21
2023-05-05T09:24:48.356Z,95.60
2023-05-05T09:25:48.304Z,95.21
2023-05-05T09:26:48.251Z,95.89
2023-05-05T09:27:48.201Z,95.60
2023-05-05T09:28:48.150Z,95.31
2023-05-05T09:30:09.087Z,95.31
2023-05-05T09:30:48.073Z,95.41
2023-05-05T09:31:47.986Z,95.70
2023-05-05T09:32:47.987Z,95.31
2023-05-05T09:33:47.882Z,94.74
2023-05-05T09:34:47.826Z,95.26
2023-05-05T09:36:08.782Z,94.74
2023-05-05T09:36:47.914Z,94.93
2023-05-05T09:37:47.669Z,95.21
2023-05-05T09:38:47.624Z,95.21
2023-05-05T09:39:47.597Z,95.21
2023-05-05T09:40:47.515Z,94.84
2023-05-05T09:42:08.450Z,95.31
2023-05-05T09:42:47.483Z,95.03
2023-05-05T09:43:53.972Z,95.03
2023-05-05T09:44:47.304Z,94.93
2023-05-05T09:45:47.249Z,95.55
2023-05-05T09:46:47.282Z,96.22
2023-05-05T09:48:08.179Z,95.55
2023-05-05T09:48:47.090Z,95.65
2023-05-05T09:49:47.038Z,95.36
2023-05-05T09:50:46.993Z,95.26
2023-05-05T09:51:46.929Z,95.46
2023-05-05T09:52:48.094Z,96.03
2023-05-05T09:54:07.809Z,95.36
2023-05-05T09:54:46.769Z,95.36
2023-05-05T09:55:46.798Z,95.36
2023-05-05T09:56:46.672Z,95.26
2023-05-05T09:57:46.608Z,94.98
2023-05-05T09:58:46.599Z,95.36
2023-05-05T10:00:07.728Z,95.46
2023-05-05T10:00:46.450Z,94.79
2023-05-05T10:01:46.463Z,94.98
2023-05-05T10:02:46.382Z,94.79
2023-05-05T10:03:46.292Z,94.98
2023-05-05T10:04:46.260Z,94.98
2023-05-05T10:06:07.181Z,94.88
2023-05-05T10:06:46.133Z,94.79
2023-05-05T10:07:46.088Z,96.03
2023-05-05T10:08:46.025Z,95.46
2023-05-05T10:09:45.973Z,95.26
2023-05-05T10:10:45.928Z,94.69
2023-05-05T10:12:06.952Z,94.98
2023-05-05T10:12:45.859Z,95.17
2023-05-05T10:13:45.757Z,94.98
2023-05-05T10:14:45.709Z,95.17
2023-05-05T10:15:45.701Z,95.55
2023-05-05T10:16:45.794Z,95.36
2023-05-05T10:18:08.247Z,95.94
2023-05-05T10:18:45.494Z,95.36
2023-05-05T10:19:45.438Z,95.55
2023-05-05T10:20:45.391Z,95.46
2023-05-05T10:21:45.337Z,95.65
2023-05-05T10:22:45.288Z,95.46
2023-05-05T10:24:06.230Z,95.36
2023-05-05T10:24:45.179Z,95.36
2023-05-05T10:25:45.123Z,96.22
2023-05-05T10:26:45.076Z,96.13
2023-05-05T10:27:45.027Z,95.55
2023-05-05T10:28:44.983Z,95.26
2023-05-05T10:30:06.087Z,96.13
2023-05-05T10:30:44.865Z,96.13
2023-05-05T10:31:44.842Z,96.13
2023-05-05T10:33:44.745Z,95.36
2023-05-05T10:34:44.713Z,95.94
2023-05-05T10:36:05.603Z,96.22
2023-05-05T10:36:44.546Z,96.13
2023-05-05T10:37:44.509Z,95.75
2023-05-05T10:38:44.445Z,95.36
2023-05-05T10:39:44.387Z,95.46
2023-05-05T10:40:44.346Z,95.46
2023-05-05T10:42:05.281Z,95.75
2023-05-05T10:42:44.256Z,95.46
2023-05-05T10:43:44.189Z,95.26
2023-05-05T10:44:44.137Z,95.46
2023-05-05T10:45:44.225Z,95.65
2023-05-05T10:46:44.223Z,95.36
2023-05-05T10:48:05.028Z,96.03
2023-05-05T10:48:43.988Z,96.22
2023-05-05T10:49:43.862Z,95.75
2023-05-05T10:50:43.816Z,96.13
2023-05-05T10:51:43.761Z,95.84
2023-05-05T10:52:43.708Z,95.65
2023-05-05T10:54:04.676Z,95.65
2023-05-05T10:54:43.603Z,96.13
2023-05-05T10:55:43.550Z,96.22
2023-05-05T10:56:43.511Z,95.94
2023-05-05T10:57:43.448Z,96.13
2023-05-05T10:58:55.524Z,96.13
2023-05-05T11:00:04.574Z,95.55
2023-05-05T11:00:43.380Z,95.84
2023-05-05T11:01:43.231Z,95.55
2023-05-05T11:02:43.242Z,95.75
2023-05-05T11:03:43.156Z,96.22
2023-05-05T11:04:43.076Z,95.84
2023-05-05T11:06:04.017Z,96.51
2023-05-05T11:06:42.971Z,95.55
2023-05-05T11:07:42.911Z,96.51
2023-05-05T11:08:42.867Z,96.61
2023-05-05T11:09:42.808Z,96.89
2023-05-05T11:10:42.764Z,96.70
2023-05-05T11:12:03.696Z,96.61
2023-05-05T11:12:42.681Z,96.70
2023-05-05T11:13:42.606Z,96.51
2023-05-05T11:14:42.555Z,96.61
2023-05-05T11:15:42.514Z,96.99
2023-05-05T11:16:42.499Z,96.70
2023-05-05T11:18:07.033Z,96.99
2023-05-05T11:18:42.333Z,96.51
2023-05-05T11:19:42.305Z,96.89
2023-05-05T11:20:42.227Z,96.89
2023-05-05T11:21:42.177Z,96.61
2023-05-05T11:22:42.125Z,96.70
2023-05-05T11:24:03.059Z,96.51
2023-05-05T11:24:42.021Z,96.80
2023-05-05T11:25:41.991Z,96.51
2023-05-05T11:26:41.918Z,96.51
2023-05-05T11:27:41.869Z,96.70
2023-05-05T11:28:41.807Z,96.61
2023-05-05T11:30:02.745Z,96.70
2023-05-05T11:30:41.718Z,96.61
2023-05-05T11:31:41.778Z,96.61
2023-05-05T11:32:41.622Z,96.61
2023-05-05T11:33:41.549Z,96.70
2023-05-05T11:34:41.507Z,96.70
2023-05-05T11:36:05.846Z,96.32
2023-05-05T11:36:41.394Z,96.51
2023-05-05T11:37:41.339Z,96.61
2023-05-05T11:38:41.284Z,96.51
2023-05-05T11:39:41.236Z,97.28
2023-05-05T11:40:41.177Z,97.09
2023-05-05T11:42:06.581Z,97.19
2023-05-05T11:42:41.071Z,97.19
2023-05-05T11:43:41.020Z,97.28
2023-05-05T11:44:40.970Z,97.28
2023-05-05T11:45:40.912Z,97.19
2023-05-05T11:46:41.038Z,96.89
2023-05-05T11:48:01.841Z,97.19
2023-05-05T11:48:40.755Z,96.99
2023-05-05T11:49:40.701Z,97.38
2023-05-05T11:50:40.652Z,96.99
2023-05-05T11:51:40.598Z,97.28
2023-05-05T11:52:40.546Z,97.47
2023-05-05T11:54:01.486Z,97.28
2023-05-05T11:54:40.449Z,97.09
2023-05-05T11:55:40.387Z,97.47
2023-05-05T11:56:40.329Z,97.09
2023-05-05T11:57:40.278Z,97.19
2023-05-05T11:58:40.232Z,97.33
2023-05-05T12:00:01.225Z,97.47
2023-05-05T12:00:40.125Z,97.47
2023-05-05T12:01:40.093Z,97.09
2023-05-05T12:02:40.099Z,97.09
2023-05-05T12:03:40.106Z,97.56
2023-05-05T12:04:39.965Z,97.66
2023-05-05T12:06:00.870Z,97.56
2023-05-05T12:06:39.805Z,97.28
2023-05-05T12:07:39.753Z,97.09
2023-05-05T12:08:39.705Z,97.09
2023-05-05T12:09:39.649Z,97.61
2023-05-05T12:10:39.606Z,98.05
2023-05-05T12:12:00.531Z,98.10
2023-05-05T12:12:39.536Z,98.10
2023-05-05T12:13:39.437Z,98.14
2023-05-05T12:14:39.393Z,97.76
2023-05-05T12:15:39.335Z,97.86
2023-05-05T12:16:39.336Z,97.76
2023-05-05T12:18:02.632Z,98.05
2023-05-05T12:18:39.182Z,97.76
2023-05-05T12:19:39.336Z,97.76
2023-05-05T12:20:39.066Z,97.76
2023-05-05T12:21:39.021Z,98.05
2023-05-05T12:22:38.980Z,98.82
2023-05-05T12:23:59.914Z,99.29
2023-05-05T12:24:38.862Z,99.77
2023-05-05T12:25:38.805Z,99.68
2023-05-05T12:26:38.756Z,99.05
2023-05-05T12:27:38.950Z,99.58
2023-05-05T12:28:38.656Z,99.29
2023-05-05T12:29:59.586Z,99.34
2023-05-05T12:30:38.618Z,99.25
2023-05-05T12:31:38.542Z,99.05
2023-05-05T12:32:38.453Z,99.63
2023-05-05T12:33:38.384Z,99.77
2023-05-05T12:34:38.335Z,99.63
2023-05-05T12:35:59.291Z,99.54
2023-05-05T12:36:38.227Z,99.87
2023-05-05T12:37:38.189Z,99.99
2023-05-05T12:38:38.126Z,99.99
2023-05-05T12:39:38.080Z,99.99
2023-05-05T12:40:38.029Z,99.99
2023-05-05T12:41:58.959Z,99.82
2023-05-05T12:42:37.917Z,99.99
2023-05-05T12:43:37.865Z,99.99
2023-05-05T12:44:37.812Z,99.99
2023-05-05T12:45:37.781Z,99.99
2023-05-05T12:46:37.765Z,99.99
2023-05-05T12:47:58.670Z,99.99
2023-05-05T12:48:37.609Z,99.99
2023-05-05T12:49:37.567Z,99.99
2023-05-05T12:50:37.492Z,99.99
2023-05-05T12:51:37.456Z,99.99
2023-05-05T12:52:37.391Z,99.99